Kearney, NE (68845)

08:27 AM CDT del 30 Settembre 2016 (GMT -0500)
Regency | | Change Station

Alt. 2224 ft 40.72 °N, 99.08 °W | Updated 7 seconds ago

Clear
Sereno
45.0 °F
Sembra 45 °F
N
2.4
Vento Variabile Vento da Est
Gusts 3.5 mph

Oggi
Massima -- | Minima -- °F
--% Possibilità di precip.
Ieri
Massima -- | Minima -- °F
Precip. -- in
Pressione 30.30 in
Visibilità 5.0 miglia
Nuvole Sereno
Raffreddamento del vento 45 °F
Punto di rugiada 43 °F
Umidità 93%
Piovosità 0.00 in
Spessore del manto nevoso Non disponibile.
7:32 AM 7:19 PM
Luna calante, 0% visible
METAR KEAR 301315Z AUTO 00000KT 5SM CLR 06/02 A3030 RMK AO1
Pressione 30.30 in
Visibilità 5.0 miglia
Nuvole Sereno
Raffreddamento del vento 45 °F
Punto di rugiada 43 °F
Umidità 93%
Piovosità 0.00 in
Spessore del manto nevoso Non disponibile.
7:32 AM 7:19 PM
Luna calante, 0% visible
METAR KEAR 301315Z AUTO 00000KT 5SM CLR 06/02 A3030 RMK AO1

10-Day Weather Forecast

Almanac

Astronomia

Sep. 30, 2016 Alba Tramonto
Ora attuale
Crepuscolo civile
Crepuscolo nautico
Crepuscolo astronomico
Luna
Estensione della luce visibile
Lunghezza del giorno
Tomorrow will be .
, % of the Moon is Illuminated

Gli estremi di oggi

State Highs State Lows

Community

WunderPhotos

Upload Photos

1,942,708 foto caricate!

WunderBlog® & News

Nearby

Qualità dell'aria

  Qualità dell'aria Indice AQ Inquinante
Not available.

Profondità neve

Stazione Profondità Altitudine

Attività sismica

Città  Distanza Mag. Data & Ora
Minimo Magnitudo Mostrato è 2.5.

Temperature delle acque costiere

Località Temperatura

Stations

Stazioni meteo nelle vicinanze

Ubicazione della stazione Temp. Raffreddamento del vento Punto di rugiada Umidità Vento Precip. Alt. Aggiornato Tipo
                   

Watches & Warnings

There are currently no watches in effect.